createdAt,value
2023-02-27T08:51:12.719Z,98870.47
2023-02-27T08:53:26.287Z,98883.47
2023-02-27T08:54:00.186Z,98883.47
2023-02-27T08:55:05.472Z,98879.09
2023-02-27T08:55:40.721Z,98879.94
2023-02-27T08:56:35.161Z,98884.28
2023-02-27T08:57:16.040Z,98886.09
2023-02-27T08:58:11.415Z,98883.41
2023-02-27T08:58:59.200Z,98884.19
2023-02-27T08:59:32.240Z,98886.81
2023-02-27T09:00:32.763Z,98883.41
2023-02-27T09:01:20.443Z,98886.09
2023-02-27T09:01:53.329Z,98886.09
2023-02-27T09:02:27.247Z,98893.09
2023-02-27T09:03:28.963Z,98886.09
2023-02-27T09:04:03.040Z,98886.09
2023-02-27T09:04:36.583Z,98880.91
2023-02-27T09:04:50.035Z,98876.53
2023-02-27T09:05:03.737Z,98889.59
2023-02-27T09:05:17.905Z,98888.72
2023-02-27T09:05:31.898Z,98886.09
2023-02-27T09:05:44.948Z,98885.22
2023-02-27T09:05:58.582Z,98893.84
2023-02-27T09:06:12.198Z,98892.09
2023-02-27T09:06:33.157Z,98887.75
2023-02-27T09:07:02.817Z,98887.78
2023-02-27T09:07:19.350Z,98884.38
2023-02-27T09:07:56.344Z,98886.09
2023-02-27T09:08:16.318Z,98885.22
2023-02-27T09:08:57.699Z,98884.34
2023-02-27T09:09:11.040Z,98888.75
2023-02-27T09:09:24.463Z,98885.25
2023-02-27T09:09:38.015Z,98892.19
2023-02-27T09:10:23.557Z,98892.19
2023-02-27T09:10:52.805Z,98892.19
2023-02-27T09:11:11.728Z,98893.94
2023-02-27T09:11:25.430Z,98893.94
2023-02-27T09:11:41.752Z,98899.16
2023-02-27T09:12:01.036Z,98890.47
2023-02-27T09:12:20.145Z,98891.31
2023-02-27T09:12:33.482Z,98894.81
2023-02-27T09:12:46.726Z,98893.94
2023-02-27T09:13:03.077Z,98893.06
2023-02-27T09:13:16.587Z,98895.69
2023-02-27T09:13:29.710Z,98889.56
2023-02-27T09:13:43.000Z,98886.94
2023-02-27T09:13:56.435Z,98890.44
2023-02-27T09:14:09.716Z,98895.66
2023-02-27T09:14:36.910Z,98884.34
2023-02-27T09:14:50.272Z,98888.66
2023-02-27T09:15:04.217Z,98887.81
2023-02-27T09:15:19.832Z,98882.59
2023-02-27T09:15:35.703Z,98888.69
2023-02-27T09:15:58.857Z,98889.56
2023-02-27T09:16:41.651Z,98892.22
2023-02-27T09:16:55.662Z,98892.19
2023-02-27T09:17:08.874Z,98899.16
2023-02-27T09:17:24.392Z,98892.19
2023-02-27T09:17:37.884Z,98893.97
2023-02-27T09:17:56.684Z,98894.81
2023-02-27T09:18:12.931Z,98896.56
2023-02-27T09:18:32.065Z,98896.53
2023-02-27T09:18:56.982Z,98898.28
2023-02-27T09:19:20.166Z,98898.28
2023-02-27T09:19:49.779Z,98901.75
2023-02-27T09:20:24.458Z,98900.03
2023-02-27T09:20:52.092Z,98899.16
2023-02-27T14:08:13.889Z,98960.22
2023-02-27T14:08:50.437Z,98959.38
2023-02-27T14:09:23.554Z,98957.41
2023-02-27T14:10:11.695Z,98946.97
2023-02-27T14:11:17.796Z,98960.34
2023-02-27T14:12:30.912Z,98956.84
2023-02-27T14:13:00.439Z,98961.12
2023-02-27T14:13:51.297Z,98952.69
2023-02-27T14:14:35.865Z,98962.31
2023-02-27T14:15:17.677Z,98955.41
2023-02-27T14:15:55.848Z,98950.91
2023-02-27T14:16:42.323Z,98953.41
2023-02-27T14:17:35.232Z,98951.56
2023-02-27T14:18:16.028Z,98953.22
2023-02-27T14:19:00.010Z,98952.41
2023-02-27T14:19:15.773Z,98961.44
2023-02-27T14:19:43.762Z,98957.97
2023-02-27T14:19:59.413Z,98962.41
2023-02-27T14:20:40.809Z,98955.47
2023-02-27T14:20:53.936Z,98956.19
2023-02-27T14:21:08.174Z,98962.25
2023-02-27T14:22:10.791Z,98957.87
2023-02-27T14:22:31.218Z,98961.44
2023-02-27T14:23:17.916Z,98958.03
2023-02-27T14:23:30.963Z,98963.31
2023-02-27T14:23:44.545Z,98956.34
2023-02-27T14:23:57.570Z,98961.59
2023-02-27T14:24:13.671Z,98955.50
2023-02-27T14:24:28.150Z,98959.84
2023-02-27T14:25:02.003Z,98956.34
2023-02-27T14:25:23.565Z,98958.91
2023-02-27T14:25:40.656Z,98959.69
2023-02-27T14:25:54.884Z,98958.03
2023-02-27T14:26:18.964Z,98958.94
2023-02-27T14:26:31.959Z,98960.75
2023-02-27T14:26:46.768Z,98959.84
2023-02-27T14:27:00.370Z,98959.78
2023-02-27T14:27:22.406Z,98959.78
2023-02-27T14:27:44.321Z,98964.94
2023-02-27T14:27:58.064Z,98963.09
2023-02-27T14:28:31.527Z,98966.59
2023-02-27T14:28:53.080Z,98966.47
2023-02-27T14:29:06.021Z,98957.72
2023-02-27T14:29:21.597Z,98962.09
2023-02-27T14:29:34.530Z,98963.00
2023-02-27T14:29:48.398Z,98964.69
2023-02-27T14:30:03.574Z,98954.19
2023-02-27T14:30:36.433Z,98960.28
2023-02-27T14:30:55.851Z,98964.66
2023-02-27T14:31:22.343Z,98965.47
2023-02-27T14:31:35.853Z,98960.22
2023-02-27T14:31:49.134Z,98956.69
2023-02-27T14:32:08.085Z,98958.50
2023-02-27T14:32:23.084Z,98963.78
2023-02-27T14:32:36.952Z,98961.09
2023-02-27T14:32:54.739Z,98961.12
2023-02-27T14:33:37.494Z,98962.13
2023-02-27T14:33:55.279Z,98960.38
2023-02-27T14:34:11.181Z,98962.19
2023-02-27T14:34:24.217Z,98962.16
2023-02-27T14:34:37.362Z,98961.25
2023-02-27T14:34:51.318Z,98966.47
2023-02-27T14:35:05.879Z,98963.00
2023-02-27T14:35:18.965Z,98963.84
2023-02-27T14:35:32.167Z,98963.03
2023-02-27T14:35:46.864Z,98961.38
2023-02-27T14:36:05.218Z,98960.53
2023-02-27T14:36:23.361Z,98965.75
2023-02-27T14:36:41.226Z,98965.63
2023-02-27T14:37:00.092Z,98967.34
2023-02-27T14:37:18.945Z,98962.00
2023-02-27T14:37:32.430Z,98966.38
2023-02-27T14:37:45.659Z,98969.84
2023-02-27T14:38:00.136Z,98969.84
2023-02-27T14:38:15.681Z,98964.59
2023-02-27T14:38:28.821Z,98963.66
2023-02-27T14:38:41.772Z,98963.75
2023-02-27T14:38:57.554Z,98969.00
2023-02-27T14:39:31.811Z,98965.47
2023-02-27T14:39:45.173Z,98964.53
2023-02-27T14:39:58.343Z,98972.37
2023-02-27T14:40:29.204Z,98964.47
2023-02-27T14:40:55.814Z,98957.47
2023-02-27T14:41:27.805Z,98957.44
2023-02-27T14:42:04.550Z,98961.06
2023-02-27T14:42:44.716Z,98961.22
2023-02-27T14:43:25.506Z,98963.97
2023-02-27T14:43:56.057Z,98966.81
2023-02-27T14:44:28.085Z,98967.75
2023-02-27T14:44:45.787Z,98961.59
2023-02-27T14:44:58.790Z,98964.19
2023-02-27T14:45:18.894Z,98952.81
2023-02-27T14:45:33.003Z,98961.53
2023-02-27T14:45:46.108Z,98966.81
2023-02-27T14:46:06.502Z,98959.00
2023-02-27T14:46:27.068Z,98963.31
2023-02-27T14:46:40.073Z,98960.62
2023-02-27T14:46:53.922Z,98958.03
2023-02-27T14:47:07.151Z,98963.22
2023-02-27T14:48:00.095Z,98967.56
2023-02-27T14:48:16.438Z,98959.72
2023-02-27T14:48:29.483Z,98966.53
2023-02-27T14:48:42.515Z,98963.00
2023-02-27T14:48:57.216Z,98962.13
2023-02-27T14:49:28.754Z,98958.69
2023-02-27T14:49:41.682Z,98968.38
2023-02-27T14:49:56.317Z,98965.00
2023-02-27T14:50:32.276Z,98965.06
2023-02-27T14:50:45.208Z,98960.81
2023-02-27T14:50:58.139Z,98978.34
2023-02-27T14:51:11.308Z,98966.16
2023-02-27T14:51:24.738Z,98976.62
2023-02-27T14:51:37.865Z,98974.06
2023-02-27T14:51:51.504Z,98975.75
2023-02-27T14:52:23.481Z,98967.03
2023-02-27T14:52:43.172Z,98974.84
2023-02-27T14:52:56.210Z,98970.50
2023-02-27T14:53:21.968Z,98966.13
2023-02-27T14:53:34.962Z,98969.63
2023-02-27T14:53:59.999Z,98962.63
2023-02-27T14:54:20.721Z,98966.91
2023-02-27T14:54:33.737Z,98972.97
2023-02-27T14:54:46.796Z,98970.28
2023-02-27T14:55:12.937Z,98968.50
2023-02-27T14:55:31.532Z,98969.31
2023-02-27T14:55:45.672Z,98969.41
2023-02-27T14:55:59.119Z,98969.44
2023-02-27T14:56:18.484Z,98967.69
2023-02-27T14:56:31.691Z,98967.62
2023-02-27T14:56:54.537Z,98971.16
2023-02-27T14:57:07.551Z,98972.97
2023-02-27T14:57:26.803Z,98974.72
2023-02-27T14:57:40.181Z,98976.47
2023-02-27T14:58:10.322Z,98975.62
2023-02-27T14:58:23.700Z,98976.44
2023-02-27T14:58:36.764Z,98979.03
2023-02-27T14:59:02.246Z,98976.38
2023-02-27T14:59:27.589Z,98965.88
2023-02-27T14:59:48.399Z,98968.38
2023-02-27T15:00:01.421Z,98971.87
2023-02-27T15:00:29.449Z,98973.59
2023-02-27T15:00:50.575Z,98973.59
2023-02-27T15:01:06.186Z,98971.84
2023-02-27T15:01:19.242Z,98971.81
2023-02-27T15:01:37.143Z,98976.12
2023-02-27T15:01:50.201Z,98971.78
2023-02-27T15:02:04.448Z,98977.00
2023-02-27T15:02:17.477Z,98977.00
2023-02-27T15:02:32.059Z,98969.94
2023-02-27T15:02:45.061Z,98977.00
2023-02-27T15:02:58.631Z,98973.53
2023-02-27T15:03:40.731Z,98979.69
2023-02-27T15:03:59.907Z,98981.47
2023-02-27T15:04:20.517Z,98978.88
2023-02-27T15:04:33.735Z,98979.78
2023-02-27T15:04:47.015Z,98981.59
2023-02-27T15:05:02.730Z,98982.47
2023-02-27T15:05:22.719Z,98985.97
2023-02-27T15:05:36.934Z,98978.91
2023-02-27T15:05:50.419Z,98972.87
2023-02-27T15:06:05.617Z,98979.03
2023-02-27T15:06:24.971Z,98982.59
2023-02-27T15:06:44.724Z,98981.69
2023-02-27T15:06:58.047Z,98982.53
2023-02-27T15:07:18.631Z,98980.75
2023-02-27T15:07:34.065Z,98986.06
2023-02-27T15:07:47.437Z,98986.94
2023-02-27T15:08:00.427Z,98988.66
2023-02-27T15:08:20.175Z,98989.56
2023-02-27T15:08:36.839Z,98989.47
2023-02-27T15:08:51.260Z,98988.53
2023-02-27T15:09:04.452Z,98991.12
2023-02-27T15:09:23.256Z,98989.38
2023-02-27T15:09:43.235Z,98986.72
2023-02-27T15:09:57.719Z,98986.69
2023-02-27T15:10:11.082Z,98995.41
2023-02-27T15:10:30.830Z,98990.25
2023-02-27T15:10:47.029Z,98993.81
2023-02-27T15:10:59.977Z,98989.50
2023-02-27T15:11:17.098Z,98993.03
2023-02-27T15:11:30.257Z,98989.53
2023-02-27T15:11:51.260Z,98989.50
2023-02-27T15:13:34.891Z,98999.72
2023-02-27T15:13:49.443Z,98991.03
2023-02-27T15:14:04.795Z,98997.09
2023-02-27T15:14:21.155Z,98992.75
2023-02-27T15:14:36.540Z,98998.03
2023-02-27T15:14:58.726Z,98991.16
2023-02-27T15:15:19.262Z,98999.09
2023-02-27T15:15:33.030Z,98990.41
2023-02-27T15:15:46.058Z,98999.16
2023-02-27T15:16:23.456Z,98986.94
2023-02-27T15:16:39.371Z,99001.66
2023-02-27T15:16:55.978Z,98999.00
2023-02-27T15:17:19.723Z,98991.91
2023-02-27T15:17:40.531Z,98997.13
2023-02-27T15:17:54.761Z,99006.72
2023-02-27T15:18:14.131Z,98999.78
2023-02-27T15:18:27.650Z,98998.00
2023-02-27T15:18:41.132Z,99004.13
2023-02-27T15:18:56.248Z,99001.53
2023-02-27T15:19:13.090Z,98999.78
2023-02-27T15:19:27.616Z,99004.97
2023-02-27T15:19:49.576Z,99004.94
2023-02-27T15:20:03.778Z,99010.19
2023-02-27T15:20:30.033Z,99004.97
2023-02-27T15:20:49.759Z,99009.25
2023-02-27T15:21:02.961Z,99008.47
2023-02-27T15:21:16.088Z,99009.25
2023-02-27T15:21:37.744Z,99005.75
2023-02-27T15:21:55.481Z,99003.97
2023-02-27T15:22:28.906Z,99009.25
2023-02-27T15:22:49.464Z,99005.84
2023-02-27T15:23:21.278Z,99011.91
2023-02-27T15:23:34.311Z,99004.88
2023-02-27T15:23:59.441Z,99009.16
2023-02-27T15:24:31.439Z,99001.28
2023-02-27T15:24:50.331Z,99006.53
2023-02-27T15:25:04.879Z,99001.28
2023-02-27T15:25:39.434Z,99006.59
2023-02-27T15:25:58.176Z,99011.94
2023-02-27T15:26:14.466Z,99005.88
2023-02-27T15:26:31.475Z,99015.50
2023-02-27T15:26:44.435Z,99015.50
2023-02-27T15:27:08.849Z,99012.06
2023-02-27T15:27:22.878Z,99016.44
2023-02-27T15:27:37.655Z,99009.53
2023-02-27T15:27:50.718Z,99017.44
2023-02-27T15:28:14.315Z,99017.44
2023-02-27T15:28:30.270Z,99012.25
2023-02-27T15:28:43.256Z,99011.41
2023-02-27T15:28:56.252Z,99011.38
2023-02-27T15:29:09.205Z,99010.53
2023-02-27T15:29:24.256Z,99014.88
2023-02-27T15:30:01.866Z,99009.66
2023-02-27T15:30:20.314Z,99015.72
2023-02-27T15:30:33.343Z,99014.81
2023-02-27T15:30:49.721Z,99009.56
2023-02-27T15:31:02.771Z,99012.13
2023-02-27T15:31:19.765Z,99020.84
2023-02-27T15:31:32.774Z,99019.97
2023-02-27T15:31:45.912Z,99017.34
2023-02-27T15:32:01.749Z,99013.81
2023-02-27T15:32:30.395Z,99013.84
2023-02-27T15:32:43.737Z,99018.22
2023-02-27T15:32:56.945Z,99017.31
2023-02-27T15:33:14.171Z,99019.06
2023-02-27T15:33:29.819Z,99011.16
2023-02-27T15:33:43.409Z,99013.75
2023-02-27T15:33:56.594Z,99013.78
2023-02-27T15:34:10.154Z,99020.72
2023-02-27T15:34:23.227Z,99017.22
2023-02-27T15:34:36.304Z,99018.09
2023-02-27T15:34:49.474Z,99016.34
2023-02-27T15:35:12.670Z,99017.22
2023-02-27T15:35:30.946Z,99019.84
2023-02-27T15:35:46.580Z,99023.34
2023-02-27T15:35:59.795Z,99019.81
2023-02-27T15:36:24.404Z,99022.44
2023-02-27T15:36:37.395Z,99020.69
2023-02-27T15:36:54.774Z,99025.03
2023-02-27T15:37:07.715Z,99025.03
2023-02-27T15:37:23.357Z,99019.75
2023-02-27T15:37:36.409Z,99023.25
2023-02-27T15:37:52.437Z,99021.50
2023-02-27T15:38:06.190Z,99016.28
2023-02-27T15:38:32.379Z,99019.81
2023-02-27T15:38:45.385Z,99027.66
2023-02-27T15:39:06.096Z,99028.53
2023-02-27T15:39:23.364Z,99031.13
2023-02-27T15:39:36.397Z,99028.53
2023-02-27T15:39:50.590Z,99024.16
2023-02-27T15:40:05.345Z,99024.19
2023-02-27T15:40:21.777Z,99026.84
2023-02-27T15:40:34.802Z,99033.75
2023-02-27T15:40:47.820Z,99026.00
2023-02-27T15:41:01.708Z,99026.94
2023-02-27T15:41:20.385Z,99028.66
2023-02-27T15:41:33.434Z,99026.88
2023-02-27T15:42:08.601Z,99032.97
2023-02-27T15:42:24.753Z,99027.72
2023-02-27T15:42:37.749Z,99031.28
2023-02-27T15:42:50.780Z,99022.56
2023-02-27T15:43:03.717Z,99033.06
2023-02-27T15:43:16.733Z,99033.06
2023-02-27T15:43:29.933Z,99033.97
2023-02-27T15:43:42.948Z,99035.72
2023-02-27T15:43:55.851Z,99035.69
2023-02-27T15:44:10.797Z,99032.22
2023-02-27T15:44:45.687Z,99040.09
2023-02-27T15:44:58.815Z,99041.88
2023-02-27T15:45:17.444Z,99035.78
2023-02-27T15:45:34.871Z,99038.44
2023-02-27T15:45:47.919Z,99034.97
2023-02-27T15:46:01.073Z,99046.31
2023-02-27T15:46:14.122Z,99036.75
2023-02-27T15:46:27.164Z,99039.38
2023-02-27T15:46:40.985Z,99047.25
2023-02-27T15:46:54.038Z,99045.50
2023-02-27T15:47:07.481Z,99046.38
2023-02-27T15:47:25.607Z,99040.25
2023-02-27T15:47:38.749Z,99040.22
2023-02-27T15:47:51.812Z,99049.81
2023-02-27T15:48:04.934Z,99043.69
2023-02-27T15:48:18.424Z,99044.56
2023-02-27T15:48:31.338Z,99042.75
2023-02-27T15:48:44.338Z,99044.50
2023-02-27T15:48:57.326Z,99045.38
2023-02-27T15:49:15.323Z,99042.75
2023-02-27T15:49:28.284Z,99045.31
2023-02-27T15:49:41.207Z,99040.09
2023-02-27T15:49:57.307Z,99045.34
2023-02-27T15:50:31.828Z,99042.69
2023-02-27T15:50:47.727Z,99044.41
2023-02-27T15:51:02.798Z,99050.53
2023-02-27T15:51:15.780Z,99048.78
2023-02-27T15:51:29.169Z,99045.28
2023-02-27T15:51:42.352Z,99050.50
2023-02-27T15:52:00.964Z,99047.91
2023-02-27T15:52:24.236Z,99048.78
2023-02-27T15:53:14.068Z,99054.00
2023-02-27T15:53:28.178Z,99054.00
2023-02-27T15:53:42.899Z,99051.38
2023-02-27T15:53:58.210Z,99050.50
2023-02-27T15:54:12.161Z,99050.50
2023-02-27T15:54:30.901Z,99044.38
2023-02-27T15:54:50.872Z,99049.63
2023-02-27T15:55:05.675Z,99052.22
2023-02-27T15:55:45.333Z,99047.03
2023-02-27T15:55:59.862Z,99049.66
2023-02-27T15:56:12.998Z,99050.56
2023-02-27T15:56:33.952Z,99051.44
2023-02-27T15:56:47.048Z,99050.59
2023-02-27T15:57:03.620Z,99051.44
2023-02-27T15:57:16.630Z,99056.69
2023-02-27T15:57:30.778Z,99051.50
2023-02-27T15:57:56.548Z,99058.47
2023-02-27T15:58:24.977Z,99050.63
2023-02-27T15:58:39.211Z,99051.47
2023-02-27T15:59:00.593Z,99054.09
2023-02-27T15:59:15.649Z,99047.09
2023-02-27T15:59:28.600Z,99046.22
2023-02-27T15:59:42.356Z,99051.44
2023-02-27T15:59:55.570Z,99054.03
2023-02-27T16:00:09.223Z,99052.28
2023-02-27T16:00:26.306Z,99059.25
2023-02-27T16:00:41.589Z,99045.31
2023-02-27T16:01:13.197Z,99048.78
2023-02-27T16:01:29.541Z,99056.59
2023-02-27T16:01:43.034Z,99051.34
2023-02-27T16:01:56.055Z,99047.00
2023-02-27T16:02:35.575Z,99049.63
2023-02-27T16:02:54.810Z,99050.50
2023-02-27T16:03:07.817Z,99055.75
2023-02-27T16:03:22.367Z,99052.28
2023-02-27T16:03:46.930Z,99058.38
2023-02-27T16:04:01.014Z,99055.78
2023-02-27T16:04:23.169Z,99050.53
2023-02-27T16:04:36.651Z,99046.19
2023-02-27T16:04:49.706Z,99057.50
2023-02-27T16:05:02.670Z,99055.75
2023-02-27T16:05:30.434Z,99051.38
2023-02-27T16:05:43.584Z,99056.59
2023-02-27T16:05:56.766Z,99044.34
2023-02-27T16:06:12.465Z,99049.59
2023-02-27T16:06:31.238Z,99043.50
2023-02-27T16:06:48.251Z,99050.47
2023-02-27T16:07:07.366Z,99051.38
2023-02-27T16:07:24.849Z,99053.09
2023-02-27T16:07:43.847Z,99054.84
2023-02-27T16:07:56.992Z,99054.84
2023-02-27T16:08:18.245Z,99057.47
2023-02-27T16:08:31.326Z,99044.34
2023-02-27T16:08:51.864Z,99054.00
2023-02-27T16:09:19.641Z,99056.59
2023-02-27T16:09:34.022Z,99062.69
2023-02-27T16:09:54.599Z,99057.47
2023-02-27T16:10:11.084Z,99055.75
2023-02-27T16:10:45.256Z,99049.66
2023-02-27T16:11:01.191Z,99055.78
2023-02-27T16:11:22.014Z,99058.44
2023-02-27T16:11:36.246Z,99058.41
2023-02-27T16:11:49.686Z,99061.00
2023-02-27T16:12:37.228Z,99058.38
2023-02-27T16:12:50.960Z,99061.78
2023-02-27T16:13:25.663Z,99062.72
2023-02-27T16:13:39.220Z,99060.97
2023-02-27T16:13:52.334Z,99061.03
2023-02-27T16:14:06.143Z,99070.63
2023-02-27T16:14:43.202Z,99066.28
2023-02-27T16:15:25.474Z,99068.03
2023-02-27T16:15:40.320Z,99068.00
2023-02-27T16:16:04.806Z,99067.09
2023-02-27T16:16:20.337Z,99067.12
2023-02-27T16:16:37.705Z,99071.47
2023-02-27T16:16:54.637Z,99067.97
2023-02-27T16:17:32.335Z,99060.16
2023-02-27T16:17:57.628Z,99071.50
2023-02-27T16:18:10.629Z,99068.88
2023-02-27T16:18:56.875Z,99070.63
2023-02-27T16:19:24.349Z,99066.22
2023-02-27T16:19:37.367Z,99069.75
2023-02-27T16:19:50.354Z,99072.34
2023-02-27T16:20:32.704Z,99067.12
2023-02-27T16:20:47.850Z,99081.97
2023-02-27T16:21:17.624Z,99083.72
2023-02-27T16:21:33.914Z,99078.50
2023-02-27T16:22:25.311Z,99078.50
2023-02-27T16:23:01.308Z,99079.37
2023-02-27T16:23:24.668Z,99080.22
2023-02-27T16:23:37.740Z,99081.13
2023-02-27T16:23:50.878Z,99079.37
2023-02-27T16:24:20.866Z,99085.50
2023-02-27T16:24:33.911Z,99082.84
2023-02-27T16:24:47.014Z,99084.56
2023-02-27T16:25:10.399Z,99082.00
2023-02-27T16:25:23.685Z,99079.37
2023-02-27T16:25:36.601Z,99074.13
2023-02-27T16:26:27.571Z,99077.63
2023-02-27T16:26:41.499Z,99088.94
2023-02-27T16:26:54.925Z,99084.63
2023-02-27T16:27:19.568Z,99080.25
2023-02-27T16:27:32.548Z,99087.22
2023-02-27T16:27:47.485Z,99082.88
2023-02-27T16:28:00.554Z,99082.88
2023-02-27T16:28:14.381Z,99088.97
2023-02-27T16:28:37.210Z,99088.97
2023-02-27T16:28:53.575Z,99083.75
2023-02-27T16:29:14.050Z,99090.72
2023-02-27T16:29:37.208Z,99090.72
2023-02-27T16:29:50.253Z,99094.25
2023-02-27T16:30:08.832Z,99091.63
2023-02-27T16:30:21.822Z,99089.00
2023-02-27T16:30:34.754Z,99091.59
2023-02-27T16:30:53.228Z,99095.97
2023-02-27T16:31:06.704Z,99095.09
2023-02-27T16:31:38.252Z,99092.47
2023-02-27T16:31:55.459Z,99100.34
2023-02-27T16:55:41.462Z,99128.28
2023-02-27T16:55:55.178Z,99132.66
2023-02-27T16:56:11.079Z,99129.16
2023-02-27T16:56:37.598Z,99133.53
2023-02-27T16:56:51.746Z,99134.41
2023-02-27T16:57:04.836Z,99130.91
2023-02-27T16:57:18.225Z,99136.16
2023-02-27T16:57:31.138Z,99129.16
2023-02-27T16:57:44.102Z,99137.00
2023-02-27T16:57:57.109Z,99137.91
2023-02-27T16:58:30.302Z,99133.53
2023-02-27T16:58:43.454Z,99137.88
2023-02-27T16:58:56.441Z,99137.00
2023-02-27T16:59:16.194Z,99135.25
2023-02-27T16:59:30.248Z,99142.22
2023-02-27T16:59:44.165Z,99137.00
2023-02-27T16:59:57.716Z,99135.25
2023-02-27T17:00:12.729Z,99137.00
2023-02-27T17:00:25.727Z,99132.66
2023-02-27T17:00:38.678Z,99139.59
2023-02-27T17:00:51.778Z,99138.75
2023-02-27T17:01:05.174Z,99142.22
2023-02-27T17:01:18.449Z,99137.88
2023-02-27T17:01:33.967Z,99139.63
2023-02-27T17:01:47.341Z,99137.00
2023-02-27T17:02:01.995Z,99142.22
2023-02-27T17:02:15.302Z,99138.72
2023-02-27T17:02:28.276Z,99141.38
2023-02-27T17:02:41.319Z,99142.22
2023-02-27T17:02:54.409Z,99137.88
2023-02-27T17:03:07.790Z,99143.12
2023-02-27T17:03:20.754Z,99133.50
2023-02-27T17:03:34.476Z,99142.22
2023-02-27T17:03:47.571Z,99143.09
2023-02-27T17:04:00.604Z,99137.84
2023-02-27T17:04:25.348Z,99140.47
2023-02-27T17:04:39.063Z,99135.25
2023-02-27T17:04:52.507Z,99138.72
2023-02-27T17:05:06.194Z,99141.34
2023-02-27T17:05:24.334Z,99136.97
2023-02-27T17:05:37.328Z,99141.38
2023-02-27T17:05:50.551Z,99139.59
2023-02-27T17:06:04.000Z,99139.63
2023-02-27T17:06:18.363Z,99144.88
2023-02-27T17:06:31.310Z,99140.50
2023-02-27T17:06:44.250Z,99143.09
2023-02-27T17:06:58.840Z,99135.25
2023-02-27T17:07:15.892Z,99139.63
2023-02-27T17:07:29.436Z,99141.34
2023-02-27T17:07:42.748Z,99143.12
2023-02-27T17:07:55.710Z,99143.12
2023-02-27T17:08:10.276Z,99144.84
2023-02-27T17:08:23.756Z,99142.22
2023-02-27T17:08:36.725Z,99142.22
2023-02-27T17:08:49.795Z,99148.34
2023-02-27T17:09:02.800Z,99148.31
2023-02-27T17:09:15.926Z,99144.84
2023-02-27T17:09:29.465Z,99148.34
2023-02-27T17:09:44.143Z,99150.94
2023-02-27T17:09:57.322Z,99143.97
2023-02-27T17:10:15.815Z,99142.25
2023-02-27T17:10:28.832Z,99144.84
2023-02-27T17:10:41.933Z,99147.47
2023-02-27T17:10:54.946Z,99150.09
2023-02-27T17:11:08.262Z,99153.59
2023-02-27T17:11:21.335Z,99150.09
2023-02-27T17:11:34.377Z,99143.12
2023-02-27T17:11:47.447Z,99150.09
2023-02-27T17:12:00.451Z,99155.31
2023-02-27T17:12:13.827Z,99153.59
2023-02-27T17:12:26.883Z,99155.31
2023-02-27T17:12:39.830Z,99148.34
2023-02-27T17:12:52.934Z,99152.72
2023-02-27T17:13:06.249Z,99157.06
2023-02-27T17:13:19.278Z,99149.22
2023-02-27T17:13:34.900Z,99150.09
2023-02-27T17:13:47.912Z,99155.31
2023-02-27T17:14:00.954Z,99154.47
2023-02-27T17:14:14.004Z,99157.94
2023-02-27T17:14:26.990Z,99154.47
2023-02-27T17:14:39.961Z,99158.81
2023-02-27T17:14:52.991Z,99157.06
2023-02-27T17:15:06.547Z,99154.44
2023-02-27T17:15:19.775Z,99163.19
2023-02-27T17:15:32.707Z,99150.97
2023-02-27T17:15:45.756Z,99157.06
2023-02-27T17:15:59.676Z,99160.56
2023-02-27T17:16:12.802Z,99153.59
2023-02-27T17:16:26.072Z,99161.41
2023-02-27T17:16:39.542Z,99161.41
2023-02-27T17:16:55.717Z,99157.94
2023-02-27T17:17:10.898Z,99155.31
2023-02-27T17:17:23.817Z,99161.41
2023-02-27T17:17:36.771Z,99159.66
2023-02-27T17:17:49.784Z,99162.28
2023-02-27T17:18:02.780Z,99156.19
2023-02-27T17:18:16.137Z,99160.53
2023-02-27T17:18:31.582Z,99159.69
2023-02-27T17:18:44.584Z,99165.78
2023-02-27T17:18:57.618Z,99165.78
2023-02-27T17:19:10.619Z,99162.31
2023-02-27T17:19:24.070Z,99158.78
2023-02-27T17:19:37.787Z,99160.53
2023-02-27T17:19:50.766Z,99161.44
2023-02-27T17:20:07.359Z,99163.16
2023-02-27T17:20:21.667Z,99161.44
2023-02-27T17:20:34.692Z,99154.44
2023-02-27T17:20:47.754Z,99160.53
2023-02-27T17:21:01.477Z,99165.78
2023-02-27T17:21:14.505Z,99164.94
2023-02-27T17:21:34.264Z,99167.53
2023-02-27T17:21:47.218Z,99155.31
2023-02-27T17:22:00.239Z,99158.78
2023-02-27T17:22:13.302Z,99157.94
2023-02-27T17:22:26.335Z,99156.19
2023-02-27T17:22:42.957Z,99157.06
2023-02-27T17:22:55.883Z,99160.53
2023-02-27T17:23:13.499Z,99171.00
2023-02-27T17:23:27.400Z,99165.78
2023-02-27T17:23:40.357Z,99163.16
2023-02-27T17:23:53.411Z,99156.19
2023-02-27T17:24:06.640Z,99166.66
2023-02-27T17:24:19.582Z,99164.03
2023-02-27T17:24:32.551Z,99165.78
2023-02-27T17:24:45.554Z,99164.91
2023-02-27T17:24:58.561Z,99162.28
2023-02-27T17:25:11.889Z,99171.00
2023-02-27T17:25:25.615Z,99168.41
2023-02-27T17:25:42.790Z,99158.81
2023-02-27T17:25:55.946Z,99160.56
2023-02-27T17:26:09.000Z,99161.44
2023-02-27T17:26:22.754Z,99164.91
2023-02-27T17:26:38.225Z,99162.28
2023-02-27T17:26:52.537Z,99163.16
2023-02-27T17:27:05.798Z,99168.41
2023-02-27T17:27:18.966Z,99162.28
2023-02-27T17:27:32.064Z,99168.41
2023-02-27T17:27:45.159Z,99165.78
2023-02-27T17:27:58.195Z,99167.53
2023-02-27T17:28:11.432Z,99167.50
2023-02-27T17:28:25.234Z,99165.78
2023-02-27T17:28:38.293Z,99166.62
2023-02-27T17:28:51.227Z,99167.53
2023-02-27T17:29:04.378Z,99169.25
2023-02-27T17:29:17.346Z,99166.62
2023-02-27T17:29:30.435Z,99163.16
2023-02-27T17:29:43.524Z,99164.03
2023-02-27T17:29:56.480Z,99167.50
2023-02-27T17:30:11.132Z,99160.53
2023-02-27T17:30:24.072Z,99174.50
2023-02-27T17:30:37.041Z,99164.91
2023-02-27T17:30:50.466Z,99163.16
2023-02-27T17:31:11.308Z,99171.88
2023-02-27T17:31:24.435Z,99164.91
2023-02-27T17:31:37.725Z,99165.78
2023-02-27T17:31:50.922Z,99168.38
2023-02-27T17:32:04.217Z,99166.62
2023-02-27T17:32:17.323Z,99171.00
2023-02-27T17:32:30.410Z,99167.50
2023-02-27T17:32:43.370Z,99164.91
2023-02-27T17:32:58.120Z,99167.50
2023-02-27T17:33:12.430Z,99168.38
2023-02-27T17:33:25.453Z,99171.88
2023-02-27T17:33:38.429Z,99168.38
2023-02-27T17:33:55.363Z,99168.38
2023-02-27T17:34:09.040Z,99165.78
2023-02-27T17:34:21.988Z,99167.50
2023-02-27T17:34:35.208Z,99167.50
2023-02-27T17:34:48.225Z,99164.91
2023-02-27T17:35:01.206Z,99163.16
2023-02-27T17:35:14.213Z,99163.16
2023-02-27T17:35:27.503Z,99167.50
2023-02-27T17:35:40.787Z,99168.38
2023-02-27T17:36:03.917Z,99164.91
2023-02-27T17:36:17.103Z,99169.28
2023-02-27T17:36:30.478Z,99170.16
2023-02-27T17:36:43.579Z,99166.62
2023-02-27T17:36:56.632Z,99164.91
2023-02-27T17:37:09.647Z,99168.38
2023-02-27T17:37:22.767Z,99171.00
2023-02-27T17:37:36.665Z,99166.66
2023-02-27T17:37:49.842Z,99165.78
2023-02-27T17:38:03.005Z,99174.50
2023-02-27T17:38:16.188Z,99165.78
2023-02-27T17:38:29.242Z,99174.50
2023-02-27T17:38:42.188Z,99171.88
2023-02-27T17:38:58.328Z,99168.38
2023-02-27T17:39:14.936Z,99174.50
2023-02-27T17:39:27.979Z,99170.97
2023-02-27T17:39:43.527Z,99172.72
2023-02-27T17:39:56.539Z,99169.25
2023-02-27T17:40:12.293Z,99176.25
2023-02-27T17:40:26.019Z,99177.09
2023-02-27T17:40:39.462Z,99177.09
2023-02-27T17:40:52.453Z,99174.47
2023-02-27T17:41:11.911Z,99180.59
2023-02-27T17:41:24.954Z,99168.41
2023-02-27T17:41:37.993Z,99177.97
2023-02-27T17:41:53.039Z,99171.00
2023-02-27T17:42:06.132Z,99176.25